Time;durP1;ratioP1;P1;durP2;ratioP2;P2;SDS_P1;SDS_P2;PMS_P1;PMS_P2;Temp;Humidity;BMP_temperature;BMP_pressure;BME280_temperature;BME280_humidity;BME280_pressure;Samples;Min_cycle;Max_cycle;Signal;HPM_P1;HPM_P2
2021/03/24 00:00:33;;;;;;;23.15;13.52;;;6.70;85.50;;;;;;5032312;28;20052;-71
2021/03/24 00:02:59;;;;;;;22.40;13.35;;;6.60;85.40;;;;;;5030199;28;20045;-72
2021/03/24 00:05:34;;;;;;;29.67;15.82;;;6.60;85.90;;;;;;5032540;28;20030;-72
2021/03/24 00:08:00;;;;;;;27.10;15.90;;;6.60;85.80;;;;;;5032314;28;20029;-71
2021/03/24 00:10:28;;;;;;;27.60;14.05;;;6.60;86.10;;;;;;5033780;28;20032;-72
2021/03/24 00:12:56;;;;;;;28.77;14.50;;;6.60;85.80;;;;;;5048073;28;20540;-71
2021/03/24 00:15:23;;;;;;;28.50;15.50;;;6.60;86.10;;;;;;5035459;28;20032;-71
2021/03/24 00:17:49;;;;;;;21.92;13.82;;;6.50;86.20;;;;;;5053565;28;20029;-72
2021/03/24 00:20:18;;;;;;;27.10;13.80;;;6.50;87.00;;;;;;5053423;28;20078;-73
2021/03/24 00:22:43;;;;;;;22.88;13.63;;;6.50;87.20;;;;;;5053762;28;20110;-71
2021/03/24 00:25:13;;;;;;;25.65;14.27;;;6.50;86.80;;;;;;5053417;28;20060;-68
2021/03/24 00:27:39;;;;;;;31.92;15.77;;;6.40;87.00;;;;;;5053389;28;20121;-71
2021/03/24 00:30:06;;;;;;;26.77;14.55;;;6.40;88.10;;;;;;5035375;28;20481;-70
2021/03/24 00:32:32;;;;;;;24.35;14.38;;;6.40;86.80;;;;;;5053219;28;20051;-71
2021/03/24 00:34:57;;;;;;;25.60;14.80;;;6.40;87.60;;;;;;5053322;28;20465;-72
2021/03/24 00:37:23;;;;;;;25.38;14.23;;;6.40;87.30;;;;;;5053258;28;20032;-70
2021/03/24 00:39:49;;;;;;;24.83;14.20;;;6.40;87.70;;;;;;5053109;28;20129;-71
2021/03/24 00:42:15;;;;;;;25.42;13.85;;;6.40;87.40;;;;;;5051534;28;20098;-70
2021/03/24 00:44:41;;;;;;;23.92;14.43;;;6.40;87.40;;;;;;5035218;28;20036;-71
2021/03/24 00:47:07;;;;;;;25.40;13.75;;;6.40;88.70;;;;;;5053077;28;20457;-70
2021/03/24 00:49:32;;;;;;;23.25;14.32;;;6.30;88.20;;;;;;5035097;28;20385;-69
2021/03/24 00:51:58;;;;;;;28.45;14.68;;;6.30;88.20;;;;;;5035121;28;20036;-72
2021/03/24 00:54:24;;;;;;;20.08;12.63;;;6.30;89.10;;;;;;5053304;28;20127;-71
2021/03/24 00:56:50;;;;;;;21.73;12.40;;;6.30;88.00;;;;;;5035036;28;20029;-73
2021/03/24 00:59:16;;;;;;;21.27;14.18;;;6.30;88.60;;;;;;5052870;28;20101;-74
2021/03/24 01:01:43;;;;;;;27.30;13.27;;;6.30;88.40;;;;;;5034981;28;20115;-70
2021/03/24 01:04:09;;;;;;;22.52;12.82;;;6.30;87.60;;;;;;5034947;28;20052;-74
2021/03/24 01:06:39;;;;;;;20.08;13.05;;;6.30;88.30;;;;;;5052855;28;20025;-70
2021/03/24 01:09:09;;;;;;;23.23;14.13;;;6.30;88.60;;;;;;5052813;28;20036;-71
2021/03/24 01:11:39;;;;;;;22.23;13.18;;;6.20;89.20;;;;;;5037664;28;20053;-71
2021/03/24 01:14:07;;;;;;;22.38;13.73;;;6.20;88.90;;;;;;5039063;28;20447;-72
2021/03/24 01:16:33;;;;;;;23.98;13.27;;;6.20;88.70;;;;;;5038887;28;20492;-71
2021/03/24 01:19:00;;;;;;;22.27;14.50;;;6.20;89.00;;;;;;5056996;28;20037;-72
2021/03/24 01:21:26;;;;;;;20.67;13.27;;;6.20;89.80;;;;;;5056728;28;20021;-73
2021/03/24 01:23:52;;;;;;;19.17;11.95;;;6.20;89.20;;;;;;5038832;28;20116;-74
2021/03/24 01:26:19;;;;;;;19.27;13.25;;;6.20;89.50;;;;;;5056790;28;20029;-74
2021/03/24 01:28:45;;;;;;;20.45;12.27;;;6.20;89.50;;;;;;5056778;28;20056;-74
2021/03/24 01:31:11;;;;;;;23.33;13.27;;;6.20;90.00;;;;;;5056434;28;20036;-72
2021/03/24 01:33:37;;;;;;;21.88;13.48;;;6.20;90.20;;;;;;5038672;28;20473;-75
2021/03/24 01:36:04;;;;;;;23.45;13.13;;;6.10;90.20;;;;;;5038373;28;20055;-73
2021/03/24 01:38:30;;;;;;;28.02;14.13;;;6.20;90.10;;;;;;5038572;28;20072;-71
2021/03/24 01:40:59;;;;;;;25.80;13.88;;;6.10;90.10;;;;;;5055223;28;20029;-72
2021/03/24 01:43:27;;;;;;;21.95;13.90;;;6.10;90.30;;;;;;5056479;28;20086;-72
2021/03/24 01:46:21;;;;;;;21.73;12.50;;;6.10;90.50;;;;;;5038481;28;20415;-71
2021/03/24 01:49:32;;;;;;;21.60;13.70;;;6.10;90.50;;;;;;5038046;28;20047;-72
2021/03/24 01:52:06;;;;;;;24.38;14.00;;;6.10;90.60;;;;;;5056360;28;20021;-70
2021/03/24 01:54:38;;;;;;;21.60;13.25;;;6.10;90.70;;;;;;5056332;28;20472;-71
2021/03/24 01:57:09;;;;;;;25.48;14.48;;;6.10;90.80;;;;;;5055938;28;20052;-70
2021/03/24 01:59:36;;;;;;;23.15;14.30;;;6.00;90.60;;;;;;5038365;28;20429;-70
2021/03/24 02:02:07;;;;;;;24.25;14.90;;;6.00;90.80;;;;;;5056136;28;20025;-71
2021/03/24 02:04:32;;;;;;;23.40;14.32;;;6.00;91.00;;;;;;5055850;28;20388;-71
2021/03/24 02:07:04;;;;;;;24.55;13.50;;;6.00;91.00;;;;;;5037735;28;20028;-71
2021/03/24 02:09:49;;;;;;;20.30;12.88;;;6.00;91.40;;;;;;5055719;28;20033;-72
2021/03/24 02:12:28;;;;;;;24.52;14.38;;;6.00;91.20;;;;;;5034347;28;20205;-73
2021/03/24 02:15:09;;;;;;;24.70;15.40;;;6.00;91.20;;;;;;5034398;28;20022;-72
2021/03/24 02:17:39;;;;;;;20.67;14.18;;;6.00;91.40;;;;;;5034685;28;20099;-72
2021/03/24 02:20:21;;;;;;;26.27;14.95;;;6.00;91.20;;;;;;5034561;28;20068;-71
2021/03/24 02:22:51;;;;;;;27.58;14.73;;;6.00;91.50;;;;;;5034306;28;20025;-68
2021/03/24 02:25:29;;;;;;;22.70;14.00;;;6.10;91.00;;;;;;5035823;28;20037;-72
2021/03/24 02:27:59;;;;;;;23.50;14.63;;;6.10;91.20;;;;;;5035764;28;20026;-70
2021/03/24 02:30:33;;;;;;;24.10;15.27;;;6.10;90.60;;;;;;5034382;28;20466;-71
2021/03/24 02:33:05;;;;;;;26.50;15.65;;;6.10;90.90;;;;;;5035399;28;20033;-69
2021/03/24 02:35:34;;;;;;;28.45;15.07;;;6.10;90.90;;;;;;5035403;28;20036;-69
2021/03/24 02:38:04;;;;;;;25.65;16.08;;;6.00;91.10;;;;;;5035258;28;20489;-73
2021/03/24 02:40:32;;;;;;;27.65;14.57;;;6.10;91.00;;;;;;5034143;28;20393;-75
2021/03/24 02:43:00;;;;;;;23.20;14.82;;;6.10;91.30;;;;;;5035445;28;20422;-75
2021/03/24 02:45:35;;;;;;;23.00;14.40;;;6.10;90.80;;;;;;5035424;28;20025;-72
2021/03/24 02:48:06;;;;;;;26.27;15.43;;;6.10;91.10;;;;;;5035146;28;20026;-71
2021/03/24 02:50:33;;;;;;;28.55;14.98;;;6.10;90.90;;;;;;5033911;28;20434;-70
2021/03/24 02:53:01;;;;;;;28.52;16.17;;;6.00;91.00;;;;;;5035294;28;20029;-70
2021/03/24 02:55:29;;;;;;;28.10;16.08;;;6.00;91.00;;;;;;5035274;28;20080;-69
2021/03/24 02:57:55;;;;;;;27.33;15.57;;;6.10;91.10;;;;;;5035161;28;20049;-74
2021/03/24 03:00:25;;;;;;;28.25;15.95;;;6.10;91.10;;;;;;5050361;28;20041;-71
2021/03/24 03:02:59;;;;;;;24.90;14.80;;;6.10;91.80;;;;;;5033860;28;20060;-71
2021/03/24 03:05:34;;;;;;;27.15;16.15;;;6.10;91.80;;;;;;5033769;28;20021;-72
2021/03/24 03:08:09;;;;;;;22.50;15.07;;;6.00;91.70;;;;;;5033719;28;20359;-72
2021/03/24 03:10:53;;;;;;;26.23;15.93;;;6.00;92.10;;;;;;5034920;28;20021;-72
2021/03/24 03:13:24;;;;;;;32.53;17.25;;;6.00;91.40;;;;;;5034897;28;20041;-72
2021/03/24 03:16:03;;;;;;;25.98;16.33;;;5.90;91.70;;;;;;5034905;28;20041;-71
2021/03/24 03:18:34;;;;;;;25.65;16.17;;;5.90;91.90;;;;;;5033213;28;20060;-73
2021/03/24 03:21:05;;;;;;;28.75;17.90;;;5.90;91.70;;;;;;5035054;28;20033;-72
2021/03/24 03:23:33;;;;;;;30.33;18.33;;;5.90;91.80;;;;;;5033434;28;20036;-73
2021/03/24 03:26:20;;;;;;;26.50;16.55;;;5.80;91.90;;;;;;5033442;28;20029;-72
2021/03/24 03:28:52;;;;;;;30.02;16.33;;;5.80;92.00;;;;;;5033308;28;20030;-72
2021/03/24 03:31:25;;;;;;;25.50;15.23;;;5.80;91.90;;;;;;5049970;28;20025;-71
2021/03/24 03:33:53;;;;;;;29.02;16.50;;;5.90;92.30;;;;;;5033859;28;20036;-71
2021/03/24 03:36:21;;;;;;;24.55;15.50;;;5.80;92.20;;;;;;5034524;28;20033;-72
2021/03/24 03:38:49;;;;;;;27.20;15.73;;;5.80;92.60;;;;;;5032940;28;20462;-72
2021/03/24 03:41:17;;;;;;;57.35;27.63;;;5.90;92.60;;;;;;5034364;28;20030;-71
2021/03/24 03:43:47;;;;;;;35.00;20.40;;;5.90;92.60;;;;;;5034305;28;20107;-72
2021/03/24 03:46:15;;;;;;;30.33;17.67;;;5.90;93.10;;;;;;5034294;28;20079;-72
2021/03/24 03:48:45;;;;;;;26.98;15.93;;;6.00;92.60;;;;;;5032890;28;20087;-71
2021/03/24 03:51:16;;;;;;;37.33;24.10;;;5.90;92.40;;;;;;5049537;28;20433;-71
2021/03/24 03:54:12;;;;;;;33.80;22.38;;;5.90;92.30;;;;;;5034176;28;20484;-71
2021/03/24 03:56:50;;;;;;;47.17;27.27;;;5.90;92.60;;;;;;5034018;28;20470;-72
2021/03/24 03:59:28;;;;;;;47.97;26.42;;;5.90;93.10;;;;;;5033728;28;20496;-71
2021/03/24 04:01:58;;;;;;;45.00;26.75;;;6.00;93.30;;;;;;5033995;28;20514;-72
2021/03/24 04:04:39;;;;;;;32.95;21.67;;;5.90;93.70;;;;;;5033888;28;20021;-72
2021/03/24 04:07:26;;;;;;;35.97;24.07;;;5.90;94.00;;;;;;5034012;28;20028;-71
2021/03/24 04:09:56;;;;;;;31.20;20.75;;;5.90;94.40;;;;;;5032563;28;20032;-71
2021/03/24 04:12:25;;;;;;;32.28;22.42;;;5.90;94.20;;;;;;5045755;28;20052;-71
2021/03/24 04:14:52;;;;;;;35.85;22.77;;;5.80;94.80;;;;;;5053559;28;20029;-69
2021/03/24 04:17:38;;;;;;;33.95;21.65;;;5.80;94.70;;;;;;5053622;28;20025;-70
2021/03/24 04:20:06;;;;;;;26.02;17.83;;;5.80;94.60;;;;;;5035584;28;20113;-70
2021/03/24 04:22:33;;;;;;;28.98;17.48;;;5.70;94.90;;;;;;5053556;28;20810;-69
2021/03/24 04:25:01;;;;;;;29.67;18.83;;;5.70;94.90;;;;;;5035522;28;20028;-71
2021/03/24 04:27:31;;;;;;;31.48;18.60;;;5.70;95.10;;;;;;5053470;28;20028;-71
2021/03/24 04:30:09;;;;;;;34.35;20.17;;;5.70;95.20;;;;;;5053467;28;20032;-69
2021/03/24 04:32:35;;;;;;;30.35;18.13;;;5.70;95.20;;;;;;5053389;28;20025;-71
2021/03/24 04:35:02;;;;;;;27.55;17.15;;;5.70;95.30;;;;;;5053288;28;20025;-70
2021/03/24 04:37:37;;;;;;;25.95;16.20;;;5.70;95.10;;;;;;5053588;28;20036;-71
2021/03/24 04:40:15;;;;;;;32.03;18.35;;;5.70;95.30;;;;;;5035320;28;20037;-69
2021/03/24 04:42:50;;;;;;;30.55;18.98;;;5.60;95.70;;;;;;5053179;28;20033;-71
2021/03/24 04:45:39;;;;;;;28.98;18.02;;;5.70;95.10;;;;;;5035292;28;20021;-70
2021/03/24 04:48:30;;;;;;;36.20;20.45;;;5.60;95.70;;;;;;5035246;28;20403;-70
2021/03/24 04:51:04;;;;;;;32.10;19.70;;;5.60;95.90;;;;;;5052913;28;20079;-71
2021/03/24 04:53:35;;;;;;;35.42;20.25;;;5.60;95.80;;;;;;5052832;28;20406;-69
2021/03/24 04:56:02;;;;;;;31.60;20.65;;;5.60;96.30;;;;;;5052793;28;20482;-70
2021/03/24 04:59:00;;;;;;;31.77;18.75;;;5.60;96.30;;;;;;5048334;28;20108;-72
2021/03/24 05:01:32;;;;;;;31.65;20.30;;;5.50;95.80;;;;;;5045656;28;20178;-74
2021/03/24 05:04:27;;;;;;;37.10;20.83;;;5.50;96.20;;;;;;5053051;28;20025;-73
2021/03/24 05:07:03;;;;;;;37.05;21.08;;;5.50;95.90;;;;;;4964492;28;20043;-73
2021/03/24 05:09:29;;;;;;;33.80;21.45;;;5.50;96.10;;;;;;5051631;28;20124;-76
2021/03/24 05:12:22;;;;;;;31.45;19.25;;;5.50;96.20;;;;;;5052438;28;20130;-74
2021/03/24 05:15:01;;;;;;;37.00;22.65;;;5.50;96.40;;;;;;5052945;28;20078;-73
2021/03/24 05:17:35;;;;;;;34.67;21.65;;;5.50;96.40;;;;;;5052845;28;20029;-72
2021/03/24 05:20:10;;;;;;;37.75;22.52;;;5.50;96.70;;;;;;5051506;28;20041;-73
2021/03/24 05:22:43;;;;;;;40.45;22.83;;;5.50;96.40;;;;;;5034891;28;20461;-74
2021/03/24 05:25:21;;;;;;;33.50;21.38;;;5.50;96.40;;;;;;5052982;28;20025;-73
2021/03/24 05:27:51;;;;;;;31.77;19.92;;;5.60;96.50;;;;;;5052779;28;20028;-73
2021/03/24 05:30:33;;;;;;;34.13;20.95;;;5.60;95.70;;;;;;5052775;28;20025;-73
2021/03/24 05:33:21;;;;;;;33.90;20.77;;;5.60;95.80;;;;;;5051387;28;20435;-73
2021/03/24 05:35:53;;;;;;;38.40;22.48;;;5.70;95.50;;;;;;5052649;28;20021;-72
2021/03/24 05:38:32;;;;;;;37.40;21.85;;;5.70;95.70;;;;;;5034544;28;20033;-72
2021/03/24 05:41:31;;;;;;;35.90;22.50;;;5.70;95.50;;;;;;5052632;28;20075;-73
2021/03/24 05:44:15;;;;;;;36.67;22.48;;;5.70;95.60;;;;;;5052630;28;20515;-72
2021/03/24 05:46:59;;;;;;;40.95;23.88;;;5.70;95.70;;;;;;5034624;28;20029;-73
2021/03/24 05:49:44;;;;;;;38.85;23.60;;;5.70;96.10;;;;;;5032805;28;20607;-73
2021/03/24 05:52:14;;;;;;;38.10;23.85;;;5.70;95.70;;;;;;5049915;28;20068;-70
2021/03/24 05:54:55;;;;;;;30.27;19.23;;;5.70;96.30;;;;;;5052518;28;20021;-72
2021/03/24 05:57:36;;;;;;;34.33;21.77;;;5.70;95.50;;;;;;5054805;28;20033;-72
2021/03/24 06:00:22;;;;;;;35.85;22.20;;;5.70;96.20;;;;;;5038213;28;20452;-72
2021/03/24 06:03:10;;;;;;;37.45;22.90;;;5.70;96.00;;;;;;5055207;28;20499;-73
2021/03/24 06:05:48;;;;;;;38.88;23.38;;;5.70;96.00;;;;;;5056043;28;20082;-72
2021/03/24 06:08:47;;;;;;;35.55;23.08;;;5.80;95.80;;;;;;5038098;28;20470;-72
2021/03/24 06:11:40;;;;;;;30.38;19.40;;;5.80;96.20;;;;;;5056061;28;20106;-72
2021/03/24 06:14:27;;;;;;;32.03;20.63;;;5.80;95.80;;;;;;5056187;28;20131;-71
2021/03/24 06:17:32;;;;;;;43.33;24.38;;;5.90;96.10;;;;;;5037962;28;20025;-72
2021/03/24 06:20:46;;;;;;;58.15;29.02;;;5.90;96.20;;;;;;5040477;28;20124;-72
2021/03/24 06:23:43;;;;;;;45.53;27.83;;;6.00;95.90;;;;;;4978347;28;20033;-70
2021/03/24 06:26:27;;;;;;;32.70;21.17;;;6.10;95.70;;;;;;5056039;28;20078;-71
2021/03/24 06:28:59;;;;;;;32.88;20.23;;;6.20;95.30;;;;;;5055640;28;20043;-71
2021/03/24 06:31:53;;;;;;;28.05;19.48;;;6.20;95.10;;;;;;5055292;28;20453;-72
2021/03/24 06:34:37;;;;;;;31.08;20.33;;;6.20;95.40;;;;;;5055218;28;20393;-69
2021/03/24 06:37:19;;;;;;;39.40;25.52;;;6.20;95.50;;;;;;5055270;28;20374;-73
2021/03/24 06:39:54;;;;;;;32.13;20.92;;;6.20;95.60;;;;;;5055364;28;20048;-72
2021/03/24 06:42:53;;;;;;;35.60;21.92;;;6.30;94.80;;;;;;5037485;28;20061;-72
2021/03/24 06:45:43;;;;;;;35.13;22.25;;;6.40;95.70;;;;;;5055592;28;20029;-72
2021/03/24 06:48:27;;;;;;;62.40;39.83;;;6.50;95.50;;;;;;5055290;28;20416;-72
2021/03/24 06:51:18;;;;;;;61.92;34.28;;;6.50;94.70;;;;;;5037248;28;20033;-72
2021/03/24 06:54:02;;;;;;;40.30;26.38;;;6.60;94.40;;;;;;5055100;28;20024;-72
2021/03/24 06:56:51;;;;;;;39.03;25.23;;;6.70;94.20;;;;;;5037119;28;20119;-72
2021/03/24 06:59:20;;;;;;;47.95;28.65;;;6.60;94.50;;;;;;5036482;28;20064;-72
2021/03/24 07:02:31;;;;;;;39.75;24.52;;;6.70;94.60;;;;;;5042132;28;20076;-74
2021/03/24 07:05:35;;;;;;;64.88;36.97;;;6.60;94.60;;;;;;5029765;28;20091;-74
2021/03/24 07:08:25;;;;;;;45.95;27.05;;;6.60;94.60;;;;;;5016047;28;20025;-73
2021/03/24 07:11:19;;;;;;;42.03;23.90;;;6.60;94.90;;;;;;5034701;28;20381;-73
2021/03/24 07:14:12;;;;;;;42.13;24.13;;;6.60;94.20;;;;;;5014009;28;20528;-74
2021/03/24 07:16:37;;;;;;;31.63;19.45;;;6.60;94.60;;;;;;5016305;28;20517;-74
2021/03/24 07:19:14;;;;;;;36.58;21.58;;;6.50;94.50;;;;;;5016435;28;20030;-74
2021/03/24 07:22:25;;;;;;;33.63;20.10;;;6.50;95.20;;;;;;5016952;28;20029;-75
2021/03/24 07:25:10;;;;;;;29.60;18.55;;;6.30;94.80;;;;;;4996654;28;20065;-74
2021/03/24 07:27:50;;;;;;;27.27;17.27;;;6.20;96.20;;;;;;5034679;28;20036;-76
2021/03/24 07:30:18;;;;;;;30.38;20.00;;;6.10;96.30;;;;;;5016502;28;20211;-73
2021/03/24 07:32:54;;;;;;;36.15;21.08;;;6.00;96.70;;;;;;5046966;28;20104;-74
2021/03/24 07:35:34;;;;;;;30.85;19.73;;;6.10;97.10;;;;;;5053127;28;20025;-73
2021/03/24 07:38:48;;;;;;;31.90;19.00;;;6.10;97.20;;;;;;5054610;28;20021;-73
2021/03/24 07:41:55;;;;;;;37.53;23.38;;;6.30;97.50;;;;;;5036247;28;20465;-73
2021/03/24 07:44:51;;;;;;;30.35;21.27;;;6.30;97.50;;;;;;5054207;28;20029;-70
2021/03/24 07:47:59;;;;;;;38.13;22.75;;;6.30;97.20;;;;;;5054115;28;20025;-72
2021/03/24 07:50:38;;;;;;;39.55;23.40;;;6.20;97.40;;;;;;5036061;28;20068;-74
2021/03/24 07:53:25;;;;;;;34.88;22.40;;;6.20;97.30;;;;;;5036056;28;20033;-73
2021/03/24 07:56:37;;;;;;;33.63;23.15;;;6.10;97.30;;;;;;5052750;28;20125;-73
2021/03/24 07:59:08;;;;;;;31.80;21.23;;;6.20;97.30;;;;;;5026625;28;20029;-73
2021/03/24 08:01:43;;;;;;;29.27;19.02;;;6.20;97.30;;;;;;5016190;28;20040;-76
2021/03/24 08:04:17;;;;;;;28.42;18.67;;;6.30;97.20;;;;;;5016198;28;20029;-73
2021/03/24 08:07:17;;;;;;;39.70;25.92;;;6.40;96.40;;;;;;5033729;28;20025;-74
2021/03/24 08:10:08;;;;;;;27.60;18.50;;;6.30;96.50;;;;;;5032958;28;20041;-73
2021/03/24 08:12:53;;;;;;;40.25;23.80;;;6.30;96.10;;;;;;5015489;28;20136;-73
2021/03/24 08:15:53;;;;;;;60.50;37.83;;;6.20;96.40;;;;;;5033727;28;20026;-76
2021/03/24 08:18:55;;;;;;;101.40;56.42;;;6.10;96.50;;;;;;5033555;28;20648;-76
2021/03/24 08:22:17;;;;;;;84.93;52.00;;;6.10;96.80;;;;;;5015984;28;20394;-74
2021/03/24 08:25:06;;;;;;;44.85;26.70;;;6.10;96.80;;;;;;4933993;29;20029;-75
2021/03/24 08:27:44;;;;;;;47.63;29.80;;;6.10;96.40;;;;;;4936597;29;20039;-74
2021/03/24 08:30:22;;;;;;;47.35;27.48;;;6.10;97.00;;;;;;5002011;28;20051;-75
2021/03/24 08:33:05;;;;;;;27.60;18.45;;;6.10;96.80;;;;;;5015770;28;20099;-75
2021/03/24 08:35:38;;;;;;;33.75;21.50;;;6.10;96.20;;;;;;5015223;28;20030;-75
2021/03/24 08:38:22;;;;;;;52.42;32.53;;;6.20;96.30;;;;;;5033328;28;20022;-74
2021/03/24 08:41:20;;;;;;;40.92;27.67;;;6.20;96.20;;;;;;5015408;28;20060;-74
2021/03/24 08:44:09;;;;;;;41.80;27.40;;;6.20;96.20;;;;;;4982746;28;20045;-74
2021/03/24 08:47:14;;;;;;;277.77;119.88;;;6.30;96.50;;;;;;5036518;28;20021;-73
2021/03/24 08:49:49;;;;;;;214.00;95.97;;;6.40;96.10;;;;;;5035843;28;20116;-75
2021/03/24 08:52:26;;;;;;;56.70;34.85;;;6.50;96.50;;;;;;5031788;28;20025;-74
2021/03/24 08:55:29;;;;;;;33.97;24.20;;;6.60;95.90;;;;;;5033476;28;20347;-73
2021/03/24 08:58:17;;;;;;;80.05;47.05;;;6.50;95.40;;;;;;5033269;28;20030;-74
2021/03/24 09:00:59;;;;;;;59.05;38.42;;;6.60;95.80;;;;;;5015216;28;20038;-72
2021/03/24 09:03:53;;;;;;;;;;;6.70;95.70;;;;;;5033670;28;20466;-72
2021/03/24 09:06:44;;;;;;;30.02;20.65;;;6.80;95.80;;;;;;4979322;28;19913;-71
2021/03/24 09:09:49;;;;;;;24.90;17.90;;;6.80;94.90;;;;;;5033161;28;20470;-72
2021/03/24 09:12:31;;;;;;;24.40;17.85;;;6.90;95.10;;;;;;4995261;28;20119;-73
2021/03/24 09:15:05;;;;;;;30.60;18.42;;;7.00;95.10;;;;;;5032285;28;20111;-73
2021/03/24 09:17:31;;;;;;;34.08;20.15;;;7.00;94.80;;;;;;5052331;28;20025;-74
2021/03/24 09:20:18;;;;;;;30.90;18.33;;;7.00;94.10;;;;;;5033582;28;20040;-72
2021/03/24 09:23:16;;;;;;;26.95;17.25;;;7.00;93.70;;;;;;5034765;28;20029;-73
2021/03/24 09:26:00;;;;;;;37.10;20.67;;;7.20;93.40;;;;;;5038323;28;20044;-74
2021/03/24 09:28:32;;;;;;;27.90;15.70;;;7.20;92.70;;;;;;5034745;28;20025;-72
2021/03/24 09:31:17;;;;;;;37.63;23.05;;;7.20;92.00;;;;;;5052713;28;20107;-74
2021/03/24 09:33:54;;;;;;;24.88;17.23;;;7.30;93.40;;;;;;5038881;28;20028;-75
2021/03/24 09:36:47;;;;;;;46.47;26.50;;;7.20;92.60;;;;;;5038610;28;20029;-73
2021/03/24 09:39:24;;;;;;;49.95;29.58;;;7.30;93.30;;;;;;5052226;28;20048;-73
2021/03/24 09:42:17;;;;;;;39.85;25.20;;;7.40;92.30;;;;;;5035098;28;20044;-73
2021/03/24 09:45:05;;;;;;;40.95;27.10;;;7.50;91.10;;;;;;5039158;28;20495;-74
2021/03/24 09:47:49;;;;;;;34.08;23.60;;;7.40;91.60;;;;;;5056320;28;20029;-75
2021/03/24 09:50:59;;;;;;;28.98;19.00;;;7.40;92.20;;;;;;5038209;28;20029;-75
2021/03/24 09:53:28;;;;;;;26.20;18.60;;;7.50;92.30;;;;;;4974980;28;20101;-74
2021/03/24 09:56:14;;;;;;;24.95;17.35;;;7.50;91.90;;;;;;4975029;28;20043;-74
2021/03/24 09:58:48;;;;;;;25.95;16.10;;;7.50;92.20;;;;;;4974852;28;20135;-73
2021/03/24 10:01:31;;;;;;;24.38;17.45;;;7.70;93.10;;;;;;4973495;28;20527;-71
2021/03/24 10:04:25;;;;;;;26.25;17.77;;;7.60;91.80;;;;;;4974730;28;20484;-72
2021/03/24 10:07:05;;;;;;;25.50;17.08;;;7.50;92.70;;;;;;4974238;28;20039;-70
2021/03/24 10:09:51;;;;;;;29.65;20.40;;;7.50;92.10;;;;;;4974171;28;20492;-72
2021/03/24 10:12:31;;;;;;;30.42;21.02;;;7.40;92.30;;;;;;4970371;28;20524;-72
2021/03/24 10:15:13;;;;;;;33.15;22.02;;;7.30;92.70;;;;;;4955141;29;20106;-72
2021/03/24 10:17:42;;;;;;;31.58;19.98;;;7.20;93.10;;;;;;4955198;29;20031;-72
2021/03/24 10:20:20;;;;;;;31.13;21.20;;;7.20;93.50;;;;;;4965585;28;20057;-74
2021/03/24 10:22:50;;;;;;;27.17;19.25;;;7.20;93.60;;;;;;4974332;28;20165;-73
2021/03/24 10:25:39;;;;;;;26.42;17.40;;;7.20;93.40;;;;;;4974354;28;20033;-74
2021/03/24 10:28:17;;;;;;;28.00;18.83;;;7.10;92.90;;;;;;4980987;28;20027;-73
2021/03/24 10:31:12;;;;;;;30.40;18.63;;;7.10;93.40;;;;;;5030774;28;20045;-74
2021/03/24 10:33:52;;;;;;;32.92;22.02;;;7.20;93.40;;;;;;5014172;28;20034;-75
2021/03/24 10:36:36;;;;;;;31.02;20.75;;;7.30;93.40;;;;;;5015543;28;20130;-74
2021/03/24 10:39:09;;;;;;;30.15;20.17;;;7.40;93.00;;;;;;5015804;28;20068;-73
2021/03/24 10:41:35;;;;;;;26.27;18.52;;;7.50;92.80;;;;;;5015556;28;20061;-72
2021/03/24 10:44:13;;;;;;;31.17;19.05;;;7.50;92.80;;;;;;5015428;28;20084;-73
2021/03/24 10:47:24;;;;;;;32.60;21.27;;;7.60;93.40;;;;;;5015283;28;20507;-73
2021/03/24 10:50:08;;;;;;;30.77;19.90;;;7.60;92.60;;;;;;5009904;28;20041;-74
2021/03/24 10:52:59;;;;;;;34.50;24.05;;;7.40;91.00;;;;;;5030709;28;20382;-74
2021/03/24 10:55:28;;;;;;;43.90;24.85;;;7.40;91.10;;;;;;5015588;28;20030;-73
2021/03/24 10:58:04;;;;;;;34.85;23.30;;;7.50;92.00;;;;;;5030474;28;20022;-74
2021/03/24 11:00:38;;;;;;;39.70;24.25;;;7.50;91.40;;;;;;5015378;28;20026;-76
2021/03/24 11:03:32;;;;;;;45.90;27.25;;;7.50;91.30;;;;;;5015257;28;20026;-73
2021/03/24 11:06:08;;;;;;;52.45;29.77;;;7.50;91.70;;;;;;5013458;28;20034;-73
2021/03/24 11:08:43;;;;;;;51.80;30.48;;;7.50;90.70;;;;;;5014997;28;20077;-73
2021/03/24 11:11:15;;;;;;;48.42;28.50;;;7.50;91.30;;;;;;5016942;28;20529;-72
2021/03/24 11:13:47;;;;;;;47.05;27.60;;;7.40;91.30;;;;;;5034846;28;20037;-71
2021/03/24 11:16:27;;;;;;;42.42;26.77;;;7.30;91.80;;;;;;5036291;28;20552;-72
2021/03/24 11:19:09;;;;;;;43.35;26.38;;;7.30;91.90;;;;;;5034587;28;20493;-74
2021/03/24 11:21:37;;;;;;;39.72;23.23;;;7.30;92.50;;;;;;5033389;28;20040;-74
2021/03/24 11:24:22;;;;;;;39.28;24.80;;;7.30;91.60;;;;;;5034647;28;20029;-72
2021/03/24 11:26:55;;;;;;;41.42;25.95;;;7.30;93.10;;;;;;5033429;28;20028;-73
2021/03/24 11:29:24;;;;;;;48.78;27.45;;;7.30;92.30;;;;;;5032186;28;20080;-74
2021/03/24 11:31:56;;;;;;;52.10;30.38;;;7.30;92.60;;;;;;5047517;28;20050;-72
2021/03/24 11:34:45;;;;;;;51.30;29.92;;;7.30;92.70;;;;;;5054624;28;20040;-74
2021/03/24 11:37:20;;;;;;;48.88;29.60;;;7.30;92.60;;;;;;5010967;28;20627;-73
2021/03/24 11:40:03;;;;;;;42.90;26.02;;;7.30;92.80;;;;;;5050865;28;20359;-75
2021/03/24 11:42:31;;;;;;;46.00;29.83;;;7.30;92.40;;;;;;5046357;28;20112;-74
2021/03/24 11:44:57;;;;;;;50.05;31.77;;;7.30;93.00;;;;;;5052347;28;20029;-73
2021/03/24 11:48:01;;;;;;;56.88;33.15;;;7.20;93.10;;;;;;5036490;28;20025;-74
2021/03/24 11:50:29;;;;;;;47.58;27.55;;;7.30;92.70;;;;;;4972505;28;20139;-74
2021/03/24 11:53:21;;;;;;;51.25;31.05;;;7.30;93.00;;;;;;4972372;28;20093;-76
2021/03/24 11:55:54;;;;;;;43.38;27.00;;;7.40;93.40;;;;;;4970282;28;20493;-74
2021/03/24 11:58:41;;;;;;;128.18;68.13;;;7.30;92.60;;;;;;4972825;28;20039;-71
2021/03/24 12:01:41;;;;;;;54.22;30.55;;;7.30;93.20;;;;;;4953412;29;20440;-74
2021/03/24 12:04:29;;;;;;;48.42;28.65;;;7.30;92.70;;;;;;4953774;29;20031;-71
2021/03/24 12:06:57;;;;;;;52.22;29.58;;;7.40;93.00;;;;;;4953283;29;20039;-69
2021/03/24 12:09:30;;;;;;;51.22;28.90;;;7.40;93.30;;;;;;4953137;29;20035;-72
2021/03/24 12:12:19;;;;;;;49.25;29.10;;;7.40;92.50;;;;;;5009464;28;20060;-71
2021/03/24 12:15:01;;;;;;;48.92;28.77;;;7.50;92.70;;;;;;5073640;28;20024;-69
2021/03/24 12:17:31;;;;;;;43.58;26.08;;;7.60;92.40;;;;;;5073618;28;20369;-70
2021/03/24 12:20:14;;;;;;;41.38;25.35;;;7.60;92.30;;;;;;5055491;28;20037;-73
2021/03/24 12:22:53;;;;;;;39.70;24.30;;;7.70;90.90;;;;;;5055475;28;20032;-75
2021/03/24 12:25:22;;;;;;;40.88;24.52;;;8.10;91.00;;;;;;5055455;28;20021;-73
2021/03/24 12:27:52;;;;;;;37.40;23.42;;;8.10;91.00;;;;;;5055368;28;20044;-70
2021/03/24 12:30:29;;;;;;;61.85;34.03;;;8.20;90.50;;;;;;5072976;28;20033;-71
2021/03/24 12:33:02;;;;;;;70.70;39.58;;;8.30;89.90;;;;;;5071705;28;20035;-73
2021/03/24 12:35:28;;;;;;;66.55;37.70;;;8.40;87.10;;;;;;5073386;28;20035;-73
2021/03/24 12:38:06;;;;;;;58.90;35.75;;;8.40;88.50;;;;;;5073297;28;20024;-73
2021/03/24 12:40:32;;;;;;;43.72;24.15;;;8.50;86.80;;;;;;5086175;28;20035;-70
2021/03/24 12:43:16;;;;;;;35.00;20.92;;;8.50;87.80;;;;;;5087289;28;20059;-71
2021/03/24 12:45:43;;;;;;;37.28;21.73;;;8.40;83.40;;;;;;5092253;28;20577;-72
2021/03/24 12:48:28;;;;;;;37.97;21.33;;;8.40;84.60;;;;;;5093348;28;20020;-71
2021/03/24 12:51:14;;;;;;;52.20;28.63;;;8.40;84.30;;;;;;5093224;28;20028;-71
2021/03/24 12:53:54;;;;;;;31.48;21.67;;;8.40;84.50;;;;;;5093379;28;20107;-70
2021/03/24 12:56:47;;;;;;;31.42;19.90;;;8.40;85.10;;;;;;5093277;28;20058;-73
2021/03/24 12:59:56;;;;;;;28.52;18.38;;;8.50;84.70;;;;;;5091823;28;20031;-74
2021/03/24 13:02:39;;;;;;;34.72;21.10;;;9.00;83.20;;;;;;5093097;28;20123;-74
2021/03/24 13:05:27;;;;;;;41.22;24.58;;;8.80;83.60;;;;;;5091929;28;20115;-73
2021/03/24 13:07:57;;;;;;;48.05;29.80;;;8.60;83.70;;;;;;5091492;28;20028;-73
2021/03/24 13:10:32;;;;;;;71.43;41.00;;;8.50;84.40;;;;;;5091643;28;20029;-71
2021/03/24 13:13:26;;;;;;;88.88;50.97;;;8.30;85.50;;;;;;5092554;28;20074;-74
2021/03/24 13:16:02;;;;;;;46.40;28.80;;;8.30;87.10;;;;;;5090569;28;20027;-76
2021/03/24 13:18:44;;;;;;;81.00;49.13;;;8.20;87.00;;;;;;5092839;28;20114;-75
2021/03/24 13:21:29;;;;;;;;;;;8.10;86.40;;;;;;5093087;28;20519;-70
2021/03/24 13:24:04;;;;;;;52.42;33.33;;;8.10;87.90;;;;;;5087196;28;19930;-74
2021/03/24 13:26:33;;;;;;;68.50;44.90;;;8.00;89.90;;;;;;5068575;28;20047;-73
2021/03/24 13:29:16;;;;;;;46.13;29.58;;;8.00;88.20;;;;;;5077444;28;20032;-73
2021/03/24 13:31:52;;;;;;;42.35;26.95;;;8.00;89.90;;;;;;5091611;28;20077;-74
2021/03/24 13:34:42;;;;;;;48.88;28.35;;;7.90;89.60;;;;;;5093190;28;20029;-75
2021/03/24 13:37:15;;;;;;;51.97;27.10;;;7.90;86.10;;;;;;5092553;28;20028;-72